Time;durP1;ratioP1;P1;durP2;ratioP2;P2;SDS_P1;SDS_P2;PMS_P1;PMS_P2;Temp;Humidity;BMP_temperature;BMP_pressure;BME280_temperature;BME280_humidity;BME280_pressure;Samples;Min_cycle;Max_cycle;Signal;HPM_P1;HPM_P2
2023/08/30 00:00:10;;;;;;;6.93;5.22;;;15.60;99.90;;;;;;6066701;23;20013;-91
2023/08/30 00:02:49;;;;;;;8.63;4.85;;;15.50;99.90;;;;;;6114863;23;20417;-90
2023/08/30 00:05:21;;;;;;;10.18;5.50;;;15.50;99.90;;;;;;6085862;23;20009;-92
2023/08/30 00:08:18;;;;;;;;;;;;;;;;;;;;;
2023/08/30 00:11:06;;;;;;;8.02;4.93;;;15.50;99.90;;;;;;6133354;23;20009;-91
2023/08/30 00:13:52;;;;;;;8.82;5.28;;;15.40;99.90;;;;;;6110454;23;20009;-90
2023/08/30 00:16:30;;;;;;;9.60;5.50;;;15.40;99.90;;;;;;6110844;23;20001;-90
2023/08/30 00:22:31;;;;;;;;;;;;;;;;;;;;;
2023/08/30 00:25:41;;;;;;;;;;;;;;;;;;;;;
2023/08/30 00:28:35;;;;;;;10.07;5.15;;;15.30;99.90;;;;;;6114601;23;20013;-90
2023/08/30 00:31:21;;;;;;;7.50;5.30;;;15.30;99.90;;;;;;6088753;23;20077;-91
2023/08/30 00:34:43;;;;;;;8.18;5.55;;;15.30;99.90;;;;;;6132330;23;20092;-90
2023/08/30 00:37:26;;;;;;;9.52;5.30;;;15.30;99.90;;;;;;6091505;23;20013;-89
2023/08/30 00:40:14;;;;;;;7.30;5.00;;;15.30;99.90;;;;;;6065614;23;20323;-89
2023/08/30 00:43:18;;;;;;;9.48;5.00;;;15.20;99.90;;;;;;6105550;23;20023;-91
2023/08/30 00:46:17;;;;;;;7.35;5.43;;;15.20;99.90;;;;;;6063914;23;20044;-90
2023/08/30 00:48:55;;;;;;;6.97;4.40;;;15.20;99.90;;;;;;6085442;23;20021;-90
2023/08/30 00:51:52;;;;;;;10.90;5.83;;;15.20;99.90;;;;;;6094206;23;20383;-91
2023/08/30 00:54:31;;;;;;;7.40;5.07;;;15.10;99.90;;;;;;6084733;23;20016;-92
2023/08/30 00:57:15;;;;;;;7.15;5.32;;;15.10;99.90;;;;;;6088511;23;20009;-90
2023/08/30 01:00:03;;;;;;;9.10;4.72;;;15.00;99.90;;;;;;6157326;23;20009;-90
2023/08/30 01:03:10;;;;;;;7.03;4.53;;;15.00;99.90;;;;;;6124310;23;20020;-91
2023/08/30 01:05:48;;;;;;;8.20;4.88;;;15.00;99.90;;;;;;6087248;23;20164;-90
2023/08/30 01:08:55;;;;;;;6.93;4.78;;;14.90;99.90;;;;;;6117814;23;20340;-89
2023/08/30 01:11:46;;;;;;;;;;;;;;;;;;;;;
2023/08/30 01:14:52;;;;;;;;;;;;;;;;;;;;;
2023/08/30 01:18:00;;;;;;;;;;;;;;;;;;;;;
2023/08/30 01:20:56;;;;;;;9.20;5.32;;;14.80;99.90;;;;;;6132780;23;20060;-91
2023/08/30 01:24:36;;;;;;;10.00;5.80;;;14.80;99.90;;;;;;6104930;23;20064;-90
2023/08/30 01:27:30;;;;;;;9.02;6.07;;;14.70;99.90;;;;;;6158040;23;20005;-90
2023/08/30 01:30:21;;;;;;;9.73;6.13;;;14.70;99.90;;;;;;6135248;23;20036;-90
2023/08/30 01:32:57;;;;;;;;;;;14.60;99.90;;;;;;6088615;23;20084;-90
2023/08/30 01:36:07;;;;;;;;;;;14.60;99.90;;;;;;6112044;23;20021;-90
2023/08/30 01:39:12;;;;;;;10.25;6.72;;;14.60;99.90;;;;;;6113754;23;19931;-91
2023/08/30 01:42:02;;;;;;;;;;;;;;;;;;;;;
2023/08/30 01:45:25;;;;;;;9.07;6.72;;;14.50;99.90;;;;;;6111385;23;20041;-91
2023/08/30 01:48:08;;;;;;;8.07;6.65;;;14.50;99.90;;;;;;6110071;23;20270;-90
2023/08/30 01:50:43;;;;;;;12.40;7.68;;;14.50;99.90;;;;;;6084250;23;20079;-91
2023/08/30 01:54:12;;;;;;;;;;;;;;;;;;;;;
2023/08/30 01:57:15;;;;;;;10.15;8.02;;;14.40;99.90;;;;;;6120204;23;20016;-91
2023/08/30 01:59:47;;;;;;;11.83;8.13;;;14.30;99.90;;;;;;6086339;23;20014;-90
2023/08/30 02:02:53;;;;;;;10.23;8.15;;;14.30;99.90;;;;;;6110030;23;20666;-91
2023/08/30 02:09:42;;;;;;;11.32;8.18;;;14.30;99.90;;;;;;6131884;23;20351;-92
2023/08/30 02:12:22;;;;;;;12.00;8.07;;;14.30;99.90;;;;;;6107395;23;20019;-90
2023/08/30 02:15:09;;;;;;;10.10;8.18;;;14.20;99.90;;;;;;6133322;23;20056;-90
2023/08/30 02:17:53;;;;;;;10.20;7.93;;;14.30;99.90;;;;;;6109569;23;20056;-91
2023/08/30 02:20:44;;;;;;;11.60;8.35;;;14.30;99.90;;;;;;6110632;23;20092;-90
2023/08/30 02:23:13;;;;;;;11.60;9.07;;;14.30;99.90;;;;;;6108190;23;20008;-90
2023/08/30 02:26:02;;;;;;;12.40;9.43;;;14.30;99.90;;;;;;6086733;23;20048;-90
2023/08/30 02:29:16;;;;;;;;;;;;;;;;;;;;;
2023/08/30 02:31:51;;;;;;;11.45;8.88;;;14.20;99.90;;;;;;6108351;23;20014;-90
2023/08/30 02:34:40;;;;;;;10.38;8.40;;;14.10;99.90;;;;;;6131976;23;20044;-92
2023/08/30 02:37:11;;;;;;;10.43;8.85;;;14.10;99.90;;;;;;6084540;23;20040;-90
2023/08/30 02:40:20;;;;;;;13.13;8.93;;;14.10;99.90;;;;;;6118126;23;20064;-91
2023/08/30 02:43:10;;;;;;;10.20;8.95;;;14.10;99.90;;;;;;6070126;23;20077;-90
2023/08/30 02:45:52;;;;;;;;;;;;;;;;;;;;;
2023/08/30 02:48:57;;;;;;;11.25;8.43;;;14.10;99.90;;;;;;6127558;23;20013;-90
2023/08/30 02:55:38;;;;;;;11.50;8.95;;;14.00;99.90;;;;;;6126813;23;20032;-90
2023/08/30 02:58:47;;;;;;;12.57;9.20;;;14.00;99.90;;;;;;6117067;23;20093;-92
2023/08/30 03:01:46;;;;;;;13.95;9.55;;;14.10;99.90;;;;;;6099199;23;20014;-90
2023/08/30 03:04:25;;;;;;;10.05;8.73;;;14.00;99.90;;;;;;6062438;23;20009;-90
2023/08/30 03:07:06;;;;;;;11.82;9.55;;;14.00;99.90;;;;;;6087618;23;20013;-90
2023/08/30 03:13:33;;;;;;;11.05;9.15;;;14.00;99.90;;;;;;6100520;23;20120;-91
2023/08/30 03:16:31;;;;;;;11.40;9.20;;;14.00;99.90;;;;;;6104327;23;20010;-90
2023/08/30 03:19:17;;;;;;;10.70;8.82;;;14.00;99.90;;;;;;6133868;23;20164;-90
2023/08/30 03:22:20;;;;;;;;;;;;;;;;;;;;;
2023/08/30 03:24:54;;;;;;;11.63;10.18;;;14.10;99.90;;;;;;6110090;23;20013;-92
2023/08/30 03:27:53;;;;;;;13.80;9.70;;;14.10;99.90;;;;;;6112149;23;20064;-90
2023/08/30 03:30:46;;;;;;;;;;;;;;;;;;;;;
2023/08/30 03:33:42;;;;;;;10.95;9.70;;;14.20;99.90;;;;;;6133252;23;20108;-90
2023/08/30 03:36:53;;;;;;;;;;;;;;;;;;;;;
2023/08/30 03:40:20;;;;;;;;;;;;;;;;;;;;;
2023/08/30 03:43:21;;;;;;;13.35;10.85;;;14.20;99.90;;;;;;6100799;23;20332;-90
2023/08/30 03:46:14;;;;;;;13.80;11.35;;;14.20;99.90;;;;;;6136540;23;20006;-90
2023/08/30 03:48:56;;;;;;;13.77;11.00;;;14.20;99.90;;;;;;6131433;23;20022;-90
2023/08/30 03:52:03;;;;;;;;;;;;;;;;;;;;;
2023/08/30 03:55:21;;;;;;;15.70;11.32;;;14.20;99.90;;;;;;6133241;23;20013;-92
2023/08/30 03:57:56;;;;;;;15.38;12.05;;;14.20;99.90;;;;;;6071628;23;20010;-90
2023/08/30 04:00:37;;;;;;;16.27;12.50;;;14.20;99.90;;;;;;6133508;23;20025;-90
2023/08/30 04:04:12;;;;;;;15.25;12.73;;;14.20;99.90;;;;;;6136059;23;20005;-91
2023/08/30 04:07:14;;;;;;;18.77;13.68;;;14.20;99.90;;;;;;6109309;23;20096;-93
2023/08/30 04:10:07;;;;;;;16.42;14.32;;;14.20;99.90;;;;;;6135169;23;20055;-92
2023/08/30 04:13:27;;;;;;;19.20;15.27;;;14.20;99.90;;;;;;6111554;23;20017;-91
2023/08/30 04:16:31;;;;;;;16.83;14.68;;;14.30;99.90;;;;;;6124617;23;20024;-90
2023/08/30 04:19:48;;;;;;;;;;;;;;;;;;;;;
2023/08/30 04:22:56;;;;;;;;;;;;;;;;;;;;;
2023/08/30 04:26:02;;;;;;;17.65;14.02;;;14.20;99.90;;;;;;6103750;23;20017;-91
2023/08/30 04:28:57;;;;;;;;;;;;;;;;;;;;;
2023/08/30 04:32:12;;;;;;;17.35;14.70;;;14.10;99.90;;;;;;6157643;23;20014;-91
2023/08/30 04:35:23;;;;;;;19.10;14.75;;;14.10;99.90;;;;;;6134926;23;20013;-90
2023/08/30 04:38:01;;;;;;;18.45;14.82;;;14.10;99.90;;;;;;6113157;23;20013;-92
2023/08/30 04:40:37;;;;;;;18.08;13.98;;;14.10;99.90;;;;;;6138300;23;20001;-91
2023/08/30 04:43:41;;;;;;;20.27;14.77;;;14.10;99.90;;;;;;6122834;23;20053;-91
2023/08/30 04:46:56;;;;;;;;;;;;;;;;;;;;;
2023/08/30 04:49:41;;;;;;;17.27;14.00;;;14.10;99.90;;;;;;6095004;23;20458;-91
2023/08/30 04:52:42;;;;;;;15.43;13.23;;;14.10;99.90;;;;;;6094319;23;20087;-91
2023/08/30 04:55:39;;;;;;;17.67;13.50;;;14.10;99.90;;;;;;6115073;23;20010;-91
2023/08/30 04:58:33;;;;;;;;;;;;;;;;;;;;;
2023/08/30 05:02:18;;;;;;;;;;;;;;;;;;;;;
2023/08/30 05:05:26;;;;;;;;;;;;;;;;;;;;;
2023/08/30 05:08:28;;;;;;;15.70;13.43;;;14.20;99.90;;;;;;6163149;23;20036;-91
2023/08/30 05:11:24;;;;;;;;;;;;;;;;;;;;;
2023/08/30 05:14:15;;;;;;;;;;;;;;;;;;;;;
2023/08/30 05:17:17;;;;;;;;;;;;;;;;;;;;;
2023/08/30 05:20:39;;;;;;;18.67;14.23;;;14.20;99.90;;;;;;6136314;23;20020;-92
2023/08/30 05:24:05;;;;;;;18.05;13.60;;;14.20;99.90;;;;;;6090560;23;20275;-90
2023/08/30 05:26:50;;;;;;;15.35;13.23;;;14.20;99.90;;;;;;6113407;23;20009;-91
2023/08/30 05:32:45;;;;;;;16.83;13.60;;;14.20;99.90;;;;;;6110654;23;20013;-90
2023/08/30 05:35:58;;;;;;;;;;;;;;;;;;;;;
2023/08/30 05:39:35;;;;;;;17.95;13.70;;;14.20;99.90;;;;;;6137052;23;20025;-90
2023/08/30 05:42:37;;;;;;;18.63;13.45;;;14.20;99.90;;;;;;6069095;23;20454;-91
2023/08/30 05:46:05;;;;;;;;;;;;;;;;;;;;;
2023/08/30 05:49:27;;;;;;;;;;;;;;;;;;;;;
2023/08/30 05:52:21;;;;;;;17.63;13.75;;;14.20;99.90;;;;;;6094266;23;20014;-90
2023/08/30 05:55:21;;;;;;;18.40;14.32;;;14.20;99.90;;;;;;6136464;23;20022;-93
2023/08/30 05:58:23;;;;;;;17.52;13.43;;;14.20;99.90;;;;;;6117536;23;20020;-92
2023/08/30 06:01:22;;;;;;;16.05;13.35;;;14.20;99.90;;;;;;6116315;23;20020;-91
2023/08/30 06:04:40;;;;;;;18.42;13.60;;;14.10;99.90;;;;;;6098432;23;20009;-92
2023/08/30 06:07:36;;;;;;;18.10;13.65;;;14.20;99.90;;;;;;6115044;23;20072;-91
2023/08/30 06:10:28;;;;;;;;;;;;;;;;;;;;;
2023/08/30 06:26:54;;;;;;;15.80;12.82;;;14.20;99.90;;;;;;6025917;23;20461;-92
2023/08/30 06:30:08;;;;;;;;;;;;;;;;;;;;;
2023/08/30 06:33:35;;;;;;;17.00;12.95;;;14.30;99.90;;;;;;6065658;23;20438;-94
2023/08/30 06:36:57;;;;;;;;;;;;;;;;;;;;;
2023/08/30 06:40:07;;;;;;;17.35;14.18;;;14.40;99.90;;;;;;6134927;23;20100;-89
2023/08/30 06:42:49;;;;;;;17.60;13.68;;;14.50;99.90;;;;;;6111647;23;20013;-91
2023/08/30 06:49:15;;;;;;;;;;;;;;;;;;;;;
2023/08/30 06:55:09;;;;;;;17.02;11.98;;;14.80;99.90;;;;;;6137554;23;20120;-89
2023/08/30 06:58:58;;;;;;;;;;;;;;;;;;;;;
2023/08/30 07:01:56;;;;;;;;;;;;;;;;;;;;;
2023/08/30 07:05:07;;;;;;;15.52;11.30;;;15.10;99.90;;;;;;6143878;23;20020;-93
2023/08/30 07:08:27;;;;;;;;;;;;;;;;;;;;;
2023/08/30 07:11:44;;;;;;;13.13;10.95;;;15.40;99.90;;;;;;6019670;23;20026;-93
2023/08/30 07:18:40;;;;;;;13.93;10.93;;;15.40;99.90;;;;;;5970326;24;20016;-94
2023/08/30 07:22:21;;;;;;;15.70;11.00;;;15.50;99.90;;;;;;5932797;24;20045;-94
2023/08/30 07:25:20;;;;;;;;;;;;;;;;;;;;;
2023/08/30 07:28:40;;;;;;;16.60;10.95;;;15.50;99.90;;;;;;5989503;23;20019;-95
2023/08/30 07:37:01;;;;;;;;;;;;;;;;;;;;;
2023/08/30 07:40:26;;;;;;;;;;;;;;;;;;;;;
2023/08/30 08:37:41;;;;;;;13.70;7.90;;;16.20;99.90;;;;;;6158474;23;20028;-91
2023/08/30 09:03:53;;;;;;;;;;;;;;;;;;;;;
2023/08/30 09:06:54;;;;;;;11.95;6.43;;;15.70;99.90;;;;;;6115410;23;20033;-92
2023/08/30 09:10:13;;;;;;;9.98;6.32;;;15.70;99.90;;;;;;6111270;23;20006;-92
2023/08/30 09:13:26;;;;;;;10.63;6.15;;;15.70;99.90;;;;;;6134961;23;20018;-92
2023/08/30 09:16:45;;;;;;;;;;;;;;;;;;;;;
2023/08/30 09:28:36;;;;;;;;;;;;;;;;;;;;;
2023/08/30 09:31:48;;;;;;;7.60;5.00;;;15.60;99.90;;;;;;6134098;23;20009;-94
2023/08/30 09:34:59;;;;;;;9.20;5.25;;;15.60;99.90;;;;;;6110797;23;20072;-94
2023/08/30 09:37:55;;;;;;;;;;;15.60;99.90;;;;;;6121473;23;20005;-93
2023/08/30 09:40:55;;;;;;;10.98;5.82;;;15.50;99.90;;;;;;6098411;23;19983;-93
2023/08/30 09:43:56;;;;;;;7.32;5.18;;;15.50;99.90;;;;;;6110211;23;20371;-90
2023/08/30 09:50:52;;;;;;;;;;;;;;;;;;;;;
2023/08/30 09:53:57;;;;;;;14.88;5.88;;;15.40;99.90;;;;;;6132891;23;20037;-91
2023/08/30 09:56:52;;;;;;;10.32;6.28;;;15.50;99.90;;;;;;6112644;23;20013;-91
2023/08/30 10:00:05;;;;;;;;;;;;;;;;;;;;;
2023/08/30 10:03:12;;;;;;;;;;;;;;;;;;;;;
2023/08/30 10:06:51;;;;;;;;;;;;;;;;;;;;;
2023/08/30 10:10:36;;;;;;;;;;;;;;;;;;;;;
2023/08/30 10:13:14;;;;;;;16.77;6.57;;;15.90;99.90;;;;;;6103494;23;20009;-92
2023/08/30 10:16:28;;;;;;;;;;;;;;;;;;;;;
2023/08/30 10:20:04;;;;;;;;;;;;;;;;;;;;;
2023/08/30 10:23:46;;;;;;;8.07;6.10;;;15.80;99.90;;;;;;6092731;23;20009;-92
2023/08/30 10:26:39;;;;;;;8.25;5.70;;;15.80;99.90;;;;;;6114606;23;20009;-93
2023/08/30 10:30:26;;;;;;;9.93;6.53;;;15.80;99.90;;;;;;6112668;23;20116;-94
2023/08/30 10:37:25;;;;;;;9.68;6.55;;;15.80;99.90;;;;;;6091726;23;20013;-91
2023/08/30 10:41:03;;;;;;;10.67;7.40;;;15.80;99.90;;;;;;6095206;23;20022;-92
2023/08/30 10:48:58;;;;;;;10.93;6.38;;;15.80;99.90;;;;;;6100768;23;20443;-93
2023/08/30 11:06:11;;;;;;;10.73;6.88;;;16.20;99.90;;;;;;5931486;24;20044;-93
2023/08/30 11:26:04;;;;;;;;;;;;;;;;;;;;;
2023/08/30 11:36:38;;;;;;;9.93;7.00;;;16.10;99.90;;;;;;6062312;23;20024;-91
2023/08/30 11:43:40;;;;;;;10.38;6.97;;;16.00;99.90;;;;;;6100895;23;20287;-92
2023/08/30 12:05:33;;;;;;;;;;;;;;;;;;;;;
2023/08/30 12:09:09;;;;;;;7.65;5.18;;;15.80;99.90;;;;;;5908044;23;20023;-92
2023/08/30 12:13:07;;;;;;;6.82;4.93;;;15.80;99.90;;;;;;5985987;23;20007;-92
2023/08/30 12:16:28;;;;;;;;;;;;;;;;;;;;;
2023/08/30 12:19:44;;;;;;;7.53;5.05;;;15.90;99.90;;;;;;5974930;23;20008;-92
2023/08/30 12:23:12;;;;;;;;;;;;;;;;;;;;;
2023/08/30 12:26:38;;;;;;;;;;;;;;;;;;;;;
2023/08/30 12:30:16;;;;;;;8.25;5.05;;;16.10;99.90;;;;;;5984237;23;20008;-93
2023/08/30 12:34:06;;;;;;;7.45;5.03;;;16.10;99.90;;;;;;6005228;23;20016;-92
2023/08/30 12:36:46;;;;;;;;;;;;;;;;;;;;;
2023/08/30 12:40:03;;;;;;;;;;;;;;;;;;;;;
2023/08/30 12:46:30;;;;;;;;;;;;;;;;;;;;;
2023/08/30 12:49:09;;;;;;;;;;;;;;;;;;;;;
2023/08/30 12:51:58;;;;;;;;;;;;;;;;;;;;;
2023/08/30 12:54:47;;;;;;;7.95;5.57;;;16.30;99.90;;;;;;6082676;23;20061;-91
2023/08/30 13:04:27;;;;;;;6.05;4.57;;;16.40;99.90;;;;;;6081481;23;20010;-92
2023/08/30 13:07:47;;;;;;;6.83;5.13;;;16.50;99.90;;;;;;6073971;23;20010;-92
2023/08/30 13:10:44;;;;;;;;;;;;;;;;;;;;;
2023/08/30 13:25:55;;;;;;;6.72;4.47;;;16.90;99.90;;;;;;5975796;23;20016;-92
2023/08/30 13:28:38;;;;;;;8.20;4.28;;;17.00;99.90;;;;;;6037339;23;20013;-93
2023/08/30 13:31:17;;;;;;;7.28;4.40;;;16.90;99.90;;;;;;6056660;23;20094;-91
2023/08/30 13:35:06;;;;;;;7.90;4.75;;;16.90;99.90;;;;;;6052567;23;20409;-92
2023/08/30 13:37:53;;;;;;;8.05;4.50;;;16.90;99.90;;;;;;6082595;23;20009;-92
2023/08/30 13:40:41;;;;;;;8.68;4.95;;;16.90;99.90;;;;;;6066419;23;20098;-91
2023/08/30 13:46:56;;;;;;;6.80;4.57;;;16.90;99.90;;;;;;6087296;23;20013;-92
2023/08/30 13:49:44;;;;;;;9.07;4.20;;;17.00;99.90;;;;;;6134688;23;20261;-93
2023/08/30 14:01:40;;;;;;;6.97;3.35;;;17.20;99.90;;;;;;6108648;23;20371;-92
2023/08/30 14:04:29;;;;;;;9.63;3.58;;;17.20;99.90;;;;;;6112820;23;20060;-93
2023/08/30 14:07:10;;;;;;;6.47;3.03;;;17.30;99.90;;;;;;6068037;23;20341;-92
2023/08/30 14:09:57;;;;;;;8.32;2.88;;;17.50;99.90;;;;;;6089784;23;20010;-92
2023/08/30 14:13:22;;;;;;;16.08;3.88;;;17.60;99.90;;;;;;6092368;23;20080;-92
2023/08/30 14:16:40;;;;;;;8.45;2.20;;;17.60;99.90;;;;;;6115544;23;20048;-93
2023/08/30 14:19:20;;;;;;;8.35;2.13;;;17.50;99.90;;;;;;6111940;23;20036;-93
2023/08/30 14:22:08;;;;;;;;;;;;;;;;;;;;;
2023/08/30 14:38:51;;;;;;;8.18;2.20;;;17.30;99.90;;;;;;6015815;23;20069;-92
2023/08/30 14:41:59;;;;;;;7.03;1.67;;;17.60;99.90;;;;;;6022438;23;20500;-92
2023/08/30 14:45:20;;;;;;;9.90;1.85;;;17.70;99.90;;;;;;6050802;23;20462;-92
2023/08/30 14:51:30;;;;;;;10.88;1.90;;;17.60;99.90;;;;;;6104590;23;20017;-93
2023/08/30 14:59:05;;;;;;;7.43;1.50;;;17.40;99.90;;;;;;6062429;23;20035;-92
2023/08/30 15:02:21;;;;;;;6.57;1.48;;;17.40;99.90;;;;;;6028234;23;20011;-93
2023/08/30 15:05:51;;;;;;;;;;;;;;;;;;;;;
2023/08/30 15:08:49;;;;;;;8.52;1.73;;;17.40;99.90;;;;;;6122259;23;20049;-93
2023/08/30 15:19:21;;;;;;;6.05;1.42;;;17.50;99.90;;;;;;6119228;23;20032;-92
2023/08/30 15:22:01;;;;;;;5.78;1.48;;;17.60;99.90;;;;;;6113872;23;20037;-92
2023/08/30 15:35:38;;;;;;;10.20;2.28;;;17.90;99.90;;;;;;6027458;23;20146;-91
2023/08/30 15:39:18;;;;;;;7.18;1.40;;;17.80;99.90;;;;;;6112616;23;20006;-92
2023/08/30 15:42:29;;;;;;;;;;;;;;;;;;;;;
2023/08/30 16:21:28;;;;;;;5.22;1.20;;;17.40;99.90;;;;;;6130342;23;20386;-94
2023/08/30 16:33:17;;;;;;;;;;;;;;;;;;;;;
2023/08/30 16:36:18;;;;;;;6.22;1.40;;;17.30;99.90;;;;;;6024838;23;20041;-93
2023/08/30 16:44:10;;;;;;;5.40;1.38;;;17.10;99.90;;;;;;6002800;23;20058;-93
2023/08/30 16:53:55;;;;;;;6.95;1.67;;;16.70;99.90;;;;;;6098569;23;20077;-93
2023/08/30 16:56:49;;;;;;;5.55;1.70;;;16.70;99.90;;;;;;6134752;23;20025;-92
2023/08/30 17:04:20;;;;;;;;;;;;;;;;;;;;;
2023/08/30 17:07:47;;;;;;;10.35;1.88;;;16.50;99.90;;;;;;6001237;23;20099;-93
2023/08/30 17:10:50;;;;;;;;;;;;;;;;;;;;;
2023/08/30 17:13:55;;;;;;;8.50;1.52;;;16.40;99.90;;;;;;5990410;23;20020;-93
2023/08/30 17:16:51;;;;;;;;;;;;;;;;;;;;;
2023/08/30 17:20:03;;;;;;;6.47;1.55;;;16.40;99.90;;;;;;5971799;23;20012;-94
2023/08/30 17:23:21;;;;;;;;;;;;;;;;;;;;;
2023/08/30 17:26:25;;;;;;;;;;;;;;;;;;;;;
2023/08/30 17:29:14;;;;;;;;;;;;;;;;;;;;;
2023/08/30 17:32:15;;;;;;;6.07;1.35;;;16.40;99.90;;;;;;6027632;23;20046;-94
2023/08/30 17:42:10;;;;;;;6.63;1.15;;;16.20;99.90;;;;;;5947559;24;20282;-93
2023/08/30 17:49:54;;;;;;;3.75;1.20;;;16.10;99.90;;;;;;5875598;24;20018;-93
2023/08/30 17:52:52;;;;;;;4.45;1.05;;;15.90;99.90;;;;;;5838018;24;20029;-93
2023/08/30 17:55:41;;;;;;;4.72;1.10;;;15.90;99.90;;;;;;5743989;25;20030;-94
2023/08/30 17:58:47;;;;;;;2.85;1.00;;;15.90;99.90;;;;;;5825353;24;20060;-92
2023/08/30 18:19:19;;;;;;;5.85;1.20;;;15.50;99.90;;;;;;6084818;23;20006;-94
2023/08/30 18:22:02;;;;;;;3.33;1.05;;;15.50;99.90;;;;;;6070529;23;20085;-94
2023/08/30 18:25:29;;;;;;;4.85;1.13;;;15.50;99.90;;;;;;6072361;23;20017;-93
2023/08/30 18:32:31;;;;;;;3.33;0.93;;;15.40;99.90;;;;;;6130514;23;20014;-92
2023/08/30 19:03:35;;;;;;;4.05;1.60;;;14.80;99.90;;;;;;6042156;23;20054;-92
2023/08/30 19:06:29;;;;;;;5.13;1.10;;;14.80;99.90;;;;;;6067894;23;20006;-91
2023/08/30 19:20:25;;;;;;;4.45;1.30;;;14.80;99.90;;;;;;6149677;23;20017;-93
2023/08/30 19:23:27;;;;;;;;;;;;;;;;;;;;;
2023/08/30 19:26:36;;;;;;;3.58;1.10;;;14.80;99.90;;;;;;6129934;23;20005;-93
2023/08/30 19:29:30;;;;;;;3.72;1.30;;;14.80;99.90;;;;;;6113555;23;20020;-94
2023/08/30 19:37:33;;;;;;;4.88;1.20;;;14.80;99.90;;;;;;5990291;23;20011;-94
2023/08/30 20:16:09;;;;;;;;;;;;;;;;;;;;;
2023/08/30 20:19:16;;;;;;;;;;;;;;;;;;;;;
2023/08/30 20:22:18;;;;;;;;;;;;;;;;;;;;;
2023/08/30 20:25:22;;;;;;;8.05;2.65;;;14.30;99.90;;;;;;6097321;23;20070;-94
2023/08/30 20:28:22;;;;;;;6.95;2.30;;;14.20;99.90;;;;;;6087170;23;20013;-93
2023/08/30 20:31:23;;;;;;;;;;;;;;;;;;;;;
2023/08/30 20:41:15;;;;;;;8.63;3.30;;;14.10;99.90;;;;;;6125815;23;20059;-93
2023/08/30 20:44:02;;;;;;;5.90;2.40;;;14.10;99.90;;;;;;6076027;23;20013;-92
2023/08/30 20:47:03;;;;;;;;;;;;;;;;;;;;;
2023/08/30 20:49:39;;;;;;;7.57;2.65;;;14.00;99.90;;;;;;6133701;23;20006;-93
2023/08/30 20:55:38;;;;;;;4.88;2.20;;;14.00;99.90;;;;;;6102374;23;20088;-93
2023/08/30 20:59:00;;;;;;;7.20;2.08;;;14.00;99.90;;;;;;6070452;23;20009;-93
2023/08/30 21:06:06;;;;;;;;;;;;;;;;;;;;;
2023/08/30 21:09:43;;;;;;;8.30;1.92;;;14.00;99.90;;;;;;6115947;23;20013;-92
2023/08/30 21:12:50;;;;;;;;;;;;;;;;;;;;;
2023/08/30 21:16:14;;;;;;;5.53;1.35;;;13.70;99.90;;;;;;6090367;23;20018;-93
2023/08/30 21:19:36;;;;;;;5.82;1.52;;;13.70;99.90;;;;;;6076354;23;20013;-93
2023/08/30 21:22:14;;;;;;;6.10;1.50;;;13.70;99.90;;;;;;6115388;23;20029;-93
2023/08/30 21:26:10;;;;;;;;;;;;;;;;;;;;;
2023/08/30 21:29:23;;;;;;;6.25;1.30;;;13.80;99.90;;;;;;6112696;23;20020;-93
2023/08/30 21:36:21;;;;;;;;;;;;;;;;;;;;;
2023/08/30 21:42:37;;;;;;;;;;;;;;;;;;;;;
2023/08/30 21:46:18;;;;;;;5.53;1.42;;;13.70;99.90;;;;;;6041857;23;20030;-93
2023/08/30 21:49:45;;;;;;;6.05;1.48;;;13.70;99.90;;;;;;6064190;23;20013;-94
2023/08/30 21:52:58;;;;;;;5.38;1.48;;;13.60;99.90;;;;;;6138230;23;20017;-93
2023/08/30 21:56:25;;;;;;;;;;;;;;;;;;;;;
2023/08/30 22:03:28;;;;;;;;;;;;;;;;;;;;;
2023/08/30 22:10:51;;;;;;;3.90;1.23;;;13.50;99.90;;;;;;6070423;23;20006;-93
2023/08/30 22:13:57;;;;;;;5.40;1.23;;;13.50;99.90;;;;;;6053617;23;20017;-93
2023/08/30 22:17:01;;;;;;;;;;;;;;;;;;;;;
2023/08/30 22:20:25;;;;;;;;;;;;;;;;;;;;;
2023/08/30 22:27:56;;;;;;;4.45;0.98;;;13.40;99.90;;;;;;5989827;23;20027;-93
2023/08/30 22:31:10;;;;;;;4.47;1.67;;;13.30;99.90;;;;;;5997853;23;20086;-93
2023/08/30 22:34:59;;;;;;;6.80;1.45;;;13.30;99.90;;;;;;5860598;24;20092;-94
2023/08/30 22:39:34;;;;;;;;;;;;;;;;;;;;;
2023/08/30 22:47:26;;;;;;;5.10;1.30;;;13.30;99.90;;;;;;5874892;24;20035;-93
2023/08/30 22:55:38;;;;;;;6.65;1.25;;;13.40;99.90;;;;;;5986836;24;20015;-94
2023/08/30 22:59:29;;;;;;;;;;;;;;;;;;;;;
2023/08/30 23:06:13;;;;;;;7.32;1.50;;;13.40;99.90;;;;;;5998885;23;20046;-92
2023/08/30 23:09:49;;;;;;;3.75;1.10;;;13.30;99.90;;;;;;5999664;23;20054;-92
2023/08/30 23:13:16;;;;;;;;;;;;;;;;;;;;;
2023/08/30 23:17:03;;;;;;;2.92;1.00;;;13.30;99.90;;;;;;6036922;23;20042;-93
2023/08/30 23:20:57;;;;;;;;;;;;;;;;;;;;;
2023/08/30 23:24:27;;;;;;;6.18;1.30;;;13.40;99.90;;;;;;5950139;23;20380;-93
2023/08/30 23:27:44;;;;;;;4.38;1.42;;;13.30;99.90;;;;;;6034902;23;20010;-94
2023/08/30 23:34:35;;;;;;;;;;;;;;;;;;;;;
2023/08/30 23:38:11;;;;;;;5.13;1.40;;;13.40;99.90;;;;;;6125101;23;20013;-93
2023/08/30 23:41:23;;;;;;;;;;;;;;;;;;;;;
2023/08/30 23:44:48;;;;;;;;;;;;;;;;;;;;;
2023/08/30 23:51:45;;;;;;;6.47;1.40;;;13.30;99.90;;;;;;6109001;23;20045;-93
2023/08/30 23:55:15;;;;;;;9.55;1.65;;;13.20;99.90;;;;;;6148521;23;20014;-92
2023/08/30 23:58:24;;;;;;;;;;;;;;;;;;;;;
